createdAt,value
2022-10-23T00:00:54.466Z,99.90
2022-10-23T00:04:36.326Z,99.90
2022-10-23T00:08:18.247Z,99.90
2022-10-23T00:12:00.111Z,99.90
2022-10-23T00:15:42.076Z,99.90
2022-10-23T00:19:24.033Z,99.90
2022-10-23T00:23:05.962Z,99.90
2022-10-23T00:26:50.503Z,99.90
2022-10-23T00:30:32.406Z,99.90
2022-10-23T00:34:14.251Z,99.90
2022-10-23T00:37:56.151Z,99.90
2022-10-23T00:41:38.038Z,99.90
2022-10-23T00:45:24.369Z,99.90
2022-10-23T00:49:07.312Z,99.90
2022-10-23T00:52:52.452Z,99.90
2022-10-23T00:56:38.401Z,99.90
2022-10-23T01:00:49.064Z,99.90
2022-10-23T01:04:32.058Z,99.90
2022-10-23T01:08:34.119Z,99.90
2022-10-23T01:12:20.212Z,99.90
2022-10-23T01:16:13.837Z,99.90
2022-10-23T01:20:24.249Z,99.90
2022-10-23T01:24:27.807Z,99.90
2022-10-23T01:28:15.138Z,99.90
2022-10-23T01:32:06.980Z,99.90
2022-10-23T01:36:02.645Z,99.90
2022-10-23T01:39:49.887Z,99.90
2022-10-23T01:43:44.544Z,99.90
2022-10-23T01:47:31.235Z,99.90
2022-10-23T01:51:14.217Z,99.90
2022-10-23T01:55:00.463Z,99.90
2022-10-23T01:58:49.435Z,99.90
2022-10-23T02:02:34.033Z,99.90
2022-10-23T02:06:16.109Z,99.90
2022-10-23T02:10:01.103Z,99.90
2022-10-23T02:14:06.234Z,99.90
2022-10-23T02:17:53.973Z,99.90
2022-10-23T02:22:14.401Z,99.90
2022-10-23T02:26:04.052Z,99.90
2022-10-23T02:29:53.393Z,99.90
2022-10-23T02:33:39.350Z,99.90
2022-10-23T02:41:32.605Z,99.90
2022-10-23T02:45:36.426Z,99.90
2022-10-23T02:49:56.805Z,99.90
2022-10-23T02:54:03.263Z,99.90
2022-10-23T02:57:57.858Z,99.90
2022-10-23T03:01:50.747Z,99.90
2022-10-23T03:05:38.184Z,99.90
2022-10-23T03:09:20.165Z,99.90
2022-10-23T03:13:02.036Z,99.90
2022-10-23T03:16:43.918Z,99.90
2022-10-23T03:20:25.866Z,99.90
2022-10-23T03:24:07.890Z,99.90
2022-10-23T03:27:49.787Z,99.90
2022-10-23T03:31:31.629Z,99.90
2022-10-23T03:35:13.500Z,99.90
2022-10-23T03:38:56.715Z,99.90
2022-10-23T03:42:38.598Z,99.90
2022-10-23T03:46:20.439Z,99.90
2022-10-23T03:50:02.569Z,99.90
2022-10-23T03:53:44.407Z,99.90
2022-10-23T03:57:26.644Z,99.90
2022-10-23T04:01:08.863Z,99.90
2022-10-23T04:04:50.854Z,99.90
2022-10-23T04:08:32.730Z,99.90
2022-10-23T04:12:14.666Z,99.90
2022-10-23T04:15:56.498Z,99.90
2022-10-23T04:19:38.433Z,99.90
2022-10-23T04:23:20.406Z,99.90
2022-10-23T04:27:02.283Z,99.90
2022-10-23T04:30:44.127Z,99.90
2022-10-23T04:34:26.042Z,99.90
2022-10-23T04:38:07.872Z,99.90
2022-10-23T04:41:49.749Z,99.90
2022-10-23T04:45:31.612Z,99.90
2022-10-23T04:49:13.518Z,99.90
2022-10-23T04:52:58.576Z,99.90
2022-10-23T04:56:40.468Z,99.90
2022-10-23T05:00:22.494Z,99.90
2022-10-23T05:04:04.934Z,99.90
2022-10-23T05:07:46.798Z,99.90
2022-10-23T05:11:29.025Z,99.90
2022-10-23T05:15:11.077Z,99.90
2022-10-23T05:18:53.062Z,99.90
2022-10-23T05:22:38.798Z,99.90
2022-10-23T05:26:22.441Z,99.90
2022-10-23T05:30:05.761Z,99.90
2022-10-23T05:33:47.765Z,99.90
2022-10-23T05:37:29.928Z,99.90
2022-10-23T05:41:12.085Z,99.90
2022-10-23T05:44:53.924Z,99.90
2022-10-23T05:48:35.853Z,99.90
2022-10-23T05:52:20.807Z,99.90
2022-10-23T05:56:07.636Z,99.90
2022-10-23T05:59:49.393Z,99.90
2022-10-23T06:03:31.247Z,99.90
2022-10-23T06:07:13.088Z,99.90
2022-10-23T06:10:57.334Z,99.90
2022-10-23T06:14:39.205Z,99.90
2022-10-23T06:18:21.103Z,99.90
2022-10-23T06:22:04.329Z,99.90
2022-10-23T06:25:51.643Z,99.90
2022-10-23T06:29:33.513Z,99.90
2022-10-23T06:33:15.393Z,99.90
2022-10-23T06:36:57.235Z,99.90
2022-10-23T06:40:39.162Z,99.90
2022-10-23T06:44:21.004Z,99.90
2022-10-23T06:48:02.897Z,99.90
2022-10-23T06:51:44.782Z,99.90
2022-10-23T06:55:26.702Z,99.90
2022-10-23T06:59:08.667Z,99.90
2022-10-23T07:02:51.679Z,99.90
2022-10-23T07:06:33.673Z,99.90
2022-10-23T07:10:15.823Z,99.90
2022-10-23T07:13:57.764Z,99.90
2022-10-23T07:17:39.663Z,99.90
2022-10-23T07:21:21.518Z,99.90
2022-10-23T07:25:03.573Z,99.90
2022-10-23T07:28:47.633Z,99.90
2022-10-23T07:32:29.524Z,99.90
2022-10-23T07:36:11.448Z,99.90
2022-10-23T07:39:53.424Z,99.90
2022-10-23T07:43:35.451Z,99.90
2022-10-23T07:47:17.411Z,99.90
2022-10-23T07:51:03.101Z,99.90
2022-10-23T07:54:44.966Z,99.90
2022-10-23T07:58:27.994Z,99.90
2022-10-23T08:02:14.506Z,99.90
2022-10-23T08:05:56.688Z,99.90
2022-10-23T08:09:38.532Z,99.90
2022-10-23T08:13:21.509Z,99.90
2022-10-23T08:17:05.064Z,99.90
2022-10-23T08:20:48.873Z,99.90
2022-10-23T08:24:30.950Z,99.90
2022-10-23T08:28:12.993Z,99.90
2022-10-23T08:31:56.404Z,99.90
2022-10-23T08:35:38.748Z,99.90
2022-10-23T08:39:20.690Z,99.90
2022-10-23T08:43:33.078Z,99.90
2022-10-23T08:47:19.911Z,99.90
2022-10-23T08:51:26.231Z,99.90
2022-10-23T08:55:33.772Z,99.90
2022-10-23T08:59:22.863Z,99.90
2022-10-23T09:03:05.731Z,99.90
2022-10-23T09:07:38.809Z,99.90
2022-10-23T09:11:27.065Z,99.90
2022-10-23T09:15:28.365Z,99.90
2022-10-23T09:19:17.856Z,99.90
2022-10-23T09:23:07.836Z,99.90
2022-10-23T09:26:52.097Z,99.90
2022-10-23T09:30:37.151Z,99.90
2022-10-23T09:34:25.062Z,99.90
2022-10-23T09:38:45.552Z,99.90
2022-10-23T09:42:27.501Z,99.90
2022-10-23T09:46:10.565Z,99.90
2022-10-23T09:49:57.003Z,99.90
2022-10-23T09:53:48.163Z,99.90
2022-10-23T09:57:43.397Z,99.90
2022-10-23T10:01:32.768Z,99.90
2022-10-23T10:05:22.356Z,99.90
2022-10-23T10:09:18.222Z,99.90
2022-10-23T10:13:09.977Z,99.90
2022-10-23T10:17:21.011Z,99.90
2022-10-23T10:21:26.533Z,99.90
2022-10-23T10:25:32.561Z,99.90
2022-10-23T10:29:29.975Z,99.90
2022-10-23T10:33:48.552Z,99.90
2022-10-23T10:37:43.925Z,99.90
2022-10-23T10:41:42.081Z,99.90
2022-10-23T10:46:09.797Z,99.90
2022-10-23T10:50:03.490Z,99.90
2022-10-23T10:54:10.073Z,99.90
2022-10-23T10:58:02.883Z,99.90
2022-10-23T11:02:21.448Z,99.90
2022-10-23T11:06:06.233Z,99.90
2022-10-23T11:09:49.140Z,99.90
2022-10-23T11:13:42.447Z,99.90
2022-10-23T11:17:40.100Z,99.90
2022-10-23T11:21:58.259Z,99.90
2022-10-23T11:25:59.835Z,99.90
2022-10-23T11:30:08.433Z,99.90
2022-10-23T11:34:05.139Z,99.30
2022-10-23T11:38:00.245Z,99.60
2022-10-23T11:41:51.213Z,99.90
2022-10-23T11:45:37.072Z,99.90
2022-10-23T11:49:22.113Z,99.10
2022-10-23T11:53:15.067Z,99.60
2022-10-23T11:57:15.063Z,99.10
2022-10-23T12:01:05.687Z,99.60
2022-10-23T12:04:50.533Z,96.10
2022-10-23T12:08:35.812Z,94.20
2022-10-23T12:12:29.730Z,94.00
2022-10-23T12:16:11.965Z,96.00
2022-10-23T12:19:56.194Z,93.90
2022-10-23T12:23:59.746Z,95.00
2022-10-23T12:28:07.482Z,95.00
2022-10-23T12:32:15.401Z,97.40
2022-10-23T12:36:04.421Z,96.10
2022-10-23T12:39:53.121Z,96.40
2022-10-23T12:43:37.213Z,96.20
2022-10-23T12:47:19.233Z,96.80
2022-10-23T12:51:01.218Z,96.30
2022-10-23T12:54:43.141Z,96.30
2022-10-23T12:58:32.060Z,95.70
2022-10-23T13:02:27.165Z,93.50
2022-10-23T13:06:11.519Z,93.70
2022-10-23T13:09:54.580Z,93.00
2022-10-23T13:13:36.510Z,92.30
2022-10-23T13:17:18.378Z,91.60
2022-10-23T13:24:47.312Z,92.70
2022-10-23T13:28:35.242Z,92.60
2022-10-23T13:32:29.430Z,92.90
2022-10-23T13:36:14.264Z,93.30
2022-10-23T13:40:19.771Z,92.90
2022-10-23T13:44:01.620Z,95.30
2022-10-23T13:47:43.688Z,95.60
2022-10-23T13:51:30.231Z,96.60
2022-10-23T13:55:30.049Z,97.90
2022-10-23T13:59:12.536Z,99.90
2022-10-23T14:06:42.285Z,99.90
2022-10-23T14:10:26.936Z,99.90
2022-10-23T14:14:09.897Z,99.90
2022-10-23T14:17:54.238Z,99.90
2022-10-23T14:21:39.794Z,99.90
2022-10-23T14:25:22.315Z,99.90
2022-10-23T14:29:08.321Z,99.90
2022-10-23T14:32:53.306Z,99.90
2022-10-23T14:36:49.246Z,99.90
2022-10-23T14:40:32.571Z,99.90
2022-10-23T14:44:14.509Z,99.90
2022-10-23T14:47:56.502Z,99.90
2022-10-23T14:51:38.515Z,99.90
2022-10-23T14:55:20.383Z,99.90
2022-10-23T14:59:05.200Z,99.90
2022-10-23T15:02:47.103Z,99.90
2022-10-23T15:06:28.991Z,99.90
2022-10-23T15:10:11.147Z,99.90
2022-10-23T15:13:54.712Z,99.90
2022-10-23T15:17:38.310Z,99.90
2022-10-23T15:21:20.305Z,99.90
2022-10-23T15:25:02.179Z,99.90
2022-10-23T15:28:46.544Z,99.90
2022-10-23T15:32:28.432Z,99.90
2022-10-23T15:36:10.277Z,99.90
2022-10-23T15:39:52.477Z,99.90
2022-10-23T15:43:34.321Z,99.90
2022-10-23T15:47:16.427Z,99.90
2022-10-23T15:50:59.393Z,99.90
2022-10-23T15:54:41.334Z,99.90
2022-10-23T15:58:23.178Z,99.90
2022-10-23T16:02:05.353Z,99.90
2022-10-23T16:05:47.255Z,99.90
2022-10-23T16:09:29.939Z,99.90
2022-10-23T16:13:11.790Z,99.90
2022-10-23T16:16:53.665Z,99.90
2022-10-23T16:20:35.558Z,99.90
2022-10-23T16:24:17.479Z,99.90
2022-10-23T16:27:59.590Z,99.90
2022-10-23T16:31:42.102Z,99.90
2022-10-23T16:35:24.013Z,99.90
2022-10-23T16:39:07.452Z,99.90
2022-10-23T16:42:49.312Z,99.90
2022-10-23T16:46:31.661Z,99.90
2022-10-23T16:50:15.412Z,99.90
2022-10-23T16:53:57.893Z,99.90
2022-10-23T16:57:39.769Z,99.90
2022-10-23T17:01:24.554Z,99.90
2022-10-23T17:05:06.687Z,99.90
2022-10-23T17:08:48.711Z,99.90
2022-10-23T17:12:30.605Z,99.90
2022-10-23T17:16:19.886Z,99.90
2022-10-23T17:20:01.844Z,99.90
2022-10-23T17:23:43.847Z,99.90
2022-10-23T17:27:25.690Z,99.90
2022-10-23T17:31:26.345Z,99.90
2022-10-23T17:35:08.391Z,99.90
2022-10-23T17:38:50.499Z,99.90
2022-10-23T17:42:32.374Z,99.90
2022-10-23T17:46:15.244Z,99.90
2022-10-23T17:49:57.416Z,99.90
2022-10-23T17:53:42.420Z,99.90
2022-10-23T17:57:24.254Z,99.90
2022-10-23T18:01:11.525Z,99.90
2022-10-23T18:04:53.448Z,99.90
2022-10-23T18:08:36.686Z,99.90
2022-10-23T18:12:18.513Z,99.90
2022-10-23T18:16:02.295Z,99.90
2022-10-23T18:19:44.326Z,99.90
2022-10-23T18:23:27.547Z,99.90
2022-10-23T18:27:09.414Z,99.90
2022-10-23T18:30:53.448Z,99.90
2022-10-23T18:34:38.704Z,99.90
2022-10-23T18:38:20.608Z,99.90
2022-10-23T18:42:02.460Z,99.90
2022-10-23T18:45:44.337Z,99.90
2022-10-23T18:49:26.746Z,99.90
2022-10-23T18:53:08.629Z,99.90
2022-10-23T18:56:50.537Z,99.90
2022-10-23T19:00:32.422Z,99.90
2022-10-23T19:04:17.651Z,99.90
2022-10-23T19:08:00.872Z,99.90
2022-10-23T19:11:43.904Z,99.90
2022-10-23T19:15:26.107Z,99.90
2022-10-23T19:19:25.357Z,99.90
2022-10-23T19:23:07.468Z,99.90
2022-10-23T19:26:50.021Z,99.90
2022-10-23T19:30:32.332Z,99.90
2022-10-23T19:34:14.314Z,99.90
2022-10-23T19:37:56.231Z,99.90
2022-10-23T19:41:38.351Z,99.90
2022-10-23T19:45:20.712Z,99.90
2022-10-23T19:49:03.060Z,99.90
2022-10-23T19:52:44.988Z,99.90
2022-10-23T19:56:26.878Z,99.90
2022-10-23T20:00:09.341Z,99.90
2022-10-23T20:03:51.478Z,99.90
2022-10-23T20:07:34.306Z,99.90
2022-10-23T20:11:25.537Z,99.90
2022-10-23T20:15:08.348Z,99.90
2022-10-23T20:18:50.971Z,99.90
2022-10-23T20:22:32.891Z,99.90
2022-10-23T20:26:17.726Z,99.90
2022-10-23T20:29:59.597Z,99.90
2022-10-23T20:33:41.839Z,99.90
2022-10-23T20:37:23.735Z,99.90
2022-10-23T20:41:05.895Z,99.90
2022-10-23T20:44:47.790Z,99.90
2022-10-23T20:48:29.646Z,99.90
2022-10-23T20:52:11.506Z,99.90
2022-10-23T20:55:53.383Z,99.90
2022-10-23T20:59:35.429Z,99.90
2022-10-23T21:03:19.988Z,99.90
2022-10-23T21:07:09.848Z,99.90
2022-10-23T21:10:52.479Z,99.90
2022-10-23T21:14:35.021Z,99.90
2022-10-23T21:18:26.414Z,99.90
2022-10-23T21:22:09.167Z,99.90
2022-10-23T21:25:51.014Z,99.90
2022-10-23T21:29:32.915Z,99.90
2022-10-23T21:33:14.787Z,99.90
2022-10-23T21:37:13.825Z,99.90
2022-10-23T21:41:20.209Z,99.90
2022-10-23T21:45:02.069Z,99.90
2022-10-23T21:48:45.112Z,99.90
2022-10-23T21:52:27.059Z,99.90
2022-10-23T21:56:23.130Z,99.90
2022-10-23T22:00:06.488Z,99.90
2022-10-23T22:03:49.087Z,99.90
2022-10-23T22:07:31.021Z,99.90
2022-10-23T22:11:14.348Z,99.90
2022-10-23T22:14:56.312Z,99.90
2022-10-23T22:18:38.309Z,99.90
2022-10-23T22:22:20.202Z,99.90
2022-10-23T22:26:07.416Z,99.90
2022-10-23T22:29:49.297Z,99.90
2022-10-23T22:33:31.665Z,99.90
2022-10-23T22:37:13.579Z,99.90
2022-10-23T22:40:55.416Z,99.90
2022-10-23T22:44:37.373Z,99.90
2022-10-23T22:48:19.238Z,99.90
2022-10-23T22:52:01.210Z,99.90
2022-10-23T22:55:43.442Z,99.90
2022-10-23T22:59:25.375Z,99.90
2022-10-23T23:03:07.764Z,99.90
2022-10-23T23:06:49.798Z,99.90
2022-10-23T23:10:31.622Z,99.90
2022-10-23T23:14:14.407Z,99.90
2022-10-23T23:17:58.568Z,99.90
2022-10-23T23:21:40.480Z,99.90
2022-10-23T23:25:22.315Z,99.90
2022-10-23T23:29:04.228Z,99.90
2022-10-23T23:32:48.845Z,99.90
2022-10-23T23:36:30.832Z,99.90
2022-10-23T23:40:13.791Z,99.90
2022-10-23T23:43:57.719Z,99.90
2022-10-23T23:47:40.219Z,99.90
2022-10-23T23:51:24.408Z,99.90
2022-10-23T23:55:06.675Z,99.90
2022-10-23T23:58:48.808Z,99.90
